Terminal Aerodrome Forecast
Issued by NWS

Home | Current Version | Previous Version | Text Only | Print | Product List | Glossary On
Versions: 1 2 3 4 5 6 7 8 9 10 11 12 13 14
071
FTUS44 KLZK 282335
TAFPBF
TAF
KPBF 282335Z 2900/2924 08004KT P6SM BKN250
     FM290900 12006KT P6SM SCT030 BKN060
     FM291300 11007G15KT P6SM VCTS BKN015CB OVC080
     FM292200 13009G20KT 6SM -TSRA BR BKN015CB OVC040=

USA.gov is the U.S. government's official web portal to all federal, state and local government web resources and services.